createdAt,value
2022-11-17T00:00:42.074Z,11.63
2022-11-17T00:03:16.093Z,13.93
2022-11-17T00:05:44.471Z,10.53
2022-11-17T00:08:12.600Z,12.23
2022-11-17T00:10:41.981Z,10.60
2022-11-17T00:13:29.239Z,13.53
2022-11-17T00:15:57.306Z,15.20
2022-11-17T00:18:42.636Z,11.23
2022-11-17T00:21:23.901Z,11.27
2022-11-17T00:23:52.198Z,8.50
2022-11-17T00:26:23.685Z,8.20
2022-11-17T00:28:54.695Z,9.90
2022-11-17T00:31:41.126Z,10.13
2022-11-17T00:34:12.209Z,11.03
2022-11-17T00:36:42.247Z,9.50
2022-11-17T00:39:11.290Z,9.20
2022-11-17T00:41:41.104Z,12.37
2022-11-17T00:44:10.028Z,8.57
2022-11-17T00:46:39.595Z,9.30
2022-11-17T00:49:09.033Z,8.77
2022-11-17T00:51:38.213Z,13.83
2022-11-17T00:54:07.676Z,11.27
2022-11-17T00:56:35.821Z,9.67
2022-11-17T00:59:05.557Z,7.80
2022-11-17T01:01:34.010Z,8.63
2022-11-17T01:04:04.335Z,9.00
2022-11-17T01:06:35.589Z,8.77
2022-11-17T01:09:05.028Z,6.73
2022-11-17T01:11:33.791Z,6.30
2022-11-17T01:14:02.269Z,5.53
2022-11-17T01:16:33.409Z,6.90
2022-11-17T01:19:03.715Z,9.13
2022-11-17T01:21:32.917Z,9.37
2022-11-17T01:24:02.862Z,6.47
2022-11-17T01:26:33.052Z,4.83
2022-11-17T01:29:02.393Z,3.90
2022-11-17T01:31:34.382Z,3.90
2022-11-17T01:34:03.163Z,4.37
2022-11-17T01:36:53.929Z,4.10
2022-11-17T01:39:22.645Z,5.53
2022-11-17T01:41:51.007Z,5.80
2022-11-17T01:44:56.002Z,6.60
2022-11-17T01:47:40.688Z,5.23
2022-11-17T01:50:17.488Z,5.43
2022-11-17T01:52:47.241Z,5.60
2022-11-17T01:55:15.486Z,5.87
2022-11-17T01:57:48.175Z,6.07
2022-11-17T02:00:17.759Z,6.03
2022-11-17T02:02:48.987Z,8.63
2022-11-17T02:05:44.937Z,11.23
2022-11-17T02:08:13.699Z,11.07
2022-11-17T02:10:45.883Z,9.33
2022-11-17T02:13:18.782Z,8.93
2022-11-17T02:15:47.064Z,8.57
2022-11-17T02:18:17.485Z,9.10
2022-11-17T02:21:02.590Z,10.27
2022-11-17T02:23:58.352Z,12.63
2022-11-17T02:26:57.468Z,13.30
2022-11-17T02:29:31.376Z,11.37
2022-11-17T02:32:05.976Z,10.93
2022-11-17T02:34:42.554Z,8.73
2022-11-17T02:37:20.186Z,10.97
2022-11-17T02:39:55.240Z,10.90
2022-11-17T02:42:42.880Z,10.03
2022-11-17T02:45:15.356Z,9.20
2022-11-17T02:47:46.946Z,10.43
2022-11-17T02:50:15.834Z,8.33
2022-11-17T02:52:44.119Z,10.70
2022-11-17T02:55:12.816Z,9.27
2022-11-17T02:57:42.203Z,8.00
2022-11-17T03:00:15.052Z,8.43
2022-11-17T03:02:59.018Z,11.40
2022-11-17T03:05:34.540Z,10.37
2022-11-17T03:08:15.230Z,7.70
2022-11-17T03:10:52.841Z,7.67
2022-11-17T03:13:26.778Z,9.17
2022-11-17T03:16:07.150Z,8.23
2022-11-17T03:18:41.266Z,7.97
2022-11-17T03:21:14.814Z,7.53
2022-11-17T03:23:46.608Z,8.37
2022-11-17T03:26:17.537Z,6.93
2022-11-17T03:28:47.610Z,7.07
2022-11-17T03:31:19.182Z,9.33
2022-11-17T03:33:50.821Z,6.90
2022-11-17T03:36:23.631Z,8.50
2022-11-17T03:38:59.368Z,7.77
2022-11-17T03:41:29.979Z,7.40
2022-11-17T03:43:59.420Z,7.93
2022-11-17T03:46:31.545Z,7.93
2022-11-17T03:49:07.049Z,6.30
2022-11-17T03:51:35.144Z,8.90
2022-11-17T03:54:03.519Z,7.57
2022-11-17T03:56:39.687Z,9.83
2022-11-17T03:59:16.554Z,7.10
2022-11-17T04:01:46.151Z,7.90
2022-11-17T04:04:16.135Z,8.13
2022-11-17T04:06:44.331Z,6.57
2022-11-17T04:09:12.519Z,6.00
2022-11-17T04:11:58.118Z,7.03
2022-11-17T04:14:43.832Z,6.57
2022-11-17T04:17:16.137Z,8.53
2022-11-17T04:19:44.271Z,6.53
2022-11-17T04:22:12.431Z,6.90
2022-11-17T04:24:40.648Z,6.63
2022-11-17T04:27:26.915Z,6.50
2022-11-17T04:29:55.088Z,10.17
2022-11-17T04:32:24.541Z,6.33
2022-11-17T04:34:52.675Z,9.13
2022-11-17T04:37:20.874Z,5.67
2022-11-17T04:39:48.976Z,7.47
2022-11-17T04:42:16.120Z,5.27
2022-11-17T04:44:44.285Z,10.00
2022-11-17T04:47:12.398Z,8.10
2022-11-17T04:49:41.863Z,7.80
2022-11-17T04:52:10.195Z,8.17
2022-11-17T04:54:38.294Z,8.90
2022-11-17T04:57:06.311Z,7.60
2022-11-17T04:59:34.343Z,9.17
2022-11-17T05:02:05.858Z,8.23
2022-11-17T05:04:51.827Z,8.37
2022-11-17T05:07:21.348Z,8.83
2022-11-17T05:09:49.399Z,6.97
2022-11-17T05:12:34.873Z,6.87
2022-11-17T05:15:02.966Z,7.40
2022-11-17T05:17:29.969Z,6.77
2022-11-17T05:20:01.352Z,6.30
2022-11-17T05:22:48.298Z,8.63
2022-11-17T05:25:16.453Z,6.77
2022-11-17T05:27:44.634Z,10.83
2022-11-17T05:30:13.776Z,6.07
2022-11-17T05:32:41.942Z,7.17
2022-11-17T05:35:10.699Z,8.67
2022-11-17T05:37:40.201Z,7.43
2022-11-17T05:40:09.785Z,6.37
2022-11-17T05:42:37.874Z,5.63
2022-11-17T05:45:06.778Z,7.53
2022-11-17T05:47:34.836Z,6.10
2022-11-17T05:50:02.894Z,6.03
2022-11-17T05:52:32.057Z,6.43
2022-11-17T05:55:01.545Z,9.60
2022-11-17T05:57:33.469Z,5.90
2022-11-17T06:00:04.718Z,6.10
2022-11-17T06:02:36.722Z,6.90
2022-11-17T06:05:05.751Z,8.07
2022-11-17T06:07:35.626Z,7.13
2022-11-17T06:10:05.691Z,6.60
2022-11-17T06:12:33.825Z,6.77
2022-11-17T06:15:01.851Z,6.33
2022-11-17T06:17:34.486Z,8.03
2022-11-17T06:20:07.419Z,5.57
2022-11-17T06:22:36.161Z,6.17
2022-11-17T06:25:09.480Z,5.20
2022-11-17T06:27:38.846Z,7.30
2022-11-17T06:30:16.200Z,5.17
2022-11-17T06:32:44.963Z,4.97
2022-11-17T06:35:17.509Z,4.53
2022-11-17T06:37:45.666Z,5.40
2022-11-17T06:40:15.380Z,4.80
2022-11-17T06:43:01.282Z,5.30
2022-11-17T06:45:29.378Z,4.23
2022-11-17T06:47:57.434Z,5.80
2022-11-17T06:50:25.510Z,5.93
2022-11-17T06:52:57.148Z,4.60
2022-11-17T06:55:30.900Z,7.03
2022-11-17T06:58:03.810Z,5.67
2022-11-17T07:00:32.308Z,4.77
2022-11-17T07:03:01.601Z,4.87
2022-11-17T07:05:29.605Z,7.17
2022-11-17T07:07:59.832Z,5.00
2022-11-17T07:10:29.987Z,5.83
2022-11-17T07:12:58.187Z,3.87
2022-11-17T07:15:26.931Z,5.97
2022-11-17T07:17:54.974Z,4.03
2022-11-17T07:20:22.924Z,5.47
2022-11-17T07:22:50.930Z,3.53
2022-11-17T07:25:22.387Z,3.77
2022-11-17T07:27:58.902Z,3.57
2022-11-17T07:30:27.047Z,4.60
2022-11-17T07:32:55.209Z,5.87
2022-11-17T07:35:23.287Z,5.63
2022-11-17T07:37:51.335Z,4.30
2022-11-17T07:40:19.514Z,6.67
2022-11-17T07:42:51.248Z,4.23
2022-11-17T07:45:19.289Z,4.33
2022-11-17T07:47:53.544Z,4.27
2022-11-17T07:50:21.642Z,4.47
2022-11-17T07:52:50.146Z,4.83
2022-11-17T07:55:18.670Z,8.17
2022-11-17T07:57:47.058Z,4.17
2022-11-17T08:00:17.283Z,3.63
2022-11-17T08:02:45.274Z,6.87
2022-11-17T08:05:13.312Z,5.43
2022-11-17T08:07:41.391Z,14.70
2022-11-17T08:10:10.124Z,6.73
2022-11-17T08:12:38.236Z,6.33
2022-11-17T08:15:07.545Z,8.87
2022-11-17T08:17:37.016Z,5.27
2022-11-17T08:20:06.526Z,6.57
2022-11-17T08:22:34.557Z,4.87
2022-11-17T08:25:02.602Z,5.60
2022-11-17T08:27:30.641Z,6.40
2022-11-17T08:29:58.655Z,6.20
2022-11-17T08:32:26.652Z,6.13
2022-11-17T08:34:56.380Z,8.27
2022-11-17T08:37:24.429Z,7.60
2022-11-17T08:39:52.464Z,6.77
2022-11-17T08:42:20.455Z,6.87
2022-11-17T08:44:48.536Z,5.20
2022-11-17T08:47:16.550Z,6.70
2022-11-17T08:49:44.587Z,6.57
2022-11-17T08:52:13.929Z,7.68
2022-11-17T08:54:41.994Z,9.07
2022-11-17T08:57:10.081Z,8.47
2022-11-17T08:59:38.379Z,6.30
2022-11-17T09:02:06.885Z,12.27
2022-11-17T09:04:35.067Z,6.57
2022-11-17T09:07:03.284Z,7.70
2022-11-17T09:09:33.517Z,10.67
2022-11-17T09:12:01.796Z,9.03
2022-11-17T09:14:31.711Z,7.90
2022-11-17T09:16:59.865Z,8.10
2022-11-17T09:19:28.433Z,6.03
2022-11-17T09:21:56.473Z,6.57
2022-11-17T09:24:26.990Z,6.83
2022-11-17T09:26:57.542Z,8.87
2022-11-17T09:29:25.599Z,7.57
2022-11-17T09:31:53.723Z,8.93
2022-11-17T09:34:23.667Z,7.63
2022-11-17T09:36:51.827Z,7.13
2022-11-17T09:39:19.882Z,9.97
2022-11-17T09:41:54.248Z,12.33
2022-11-17T09:44:39.602Z,8.10
2022-11-17T09:47:20.849Z,11.90
2022-11-17T09:49:59.002Z,10.23
2022-11-17T09:52:32.405Z,9.63
2022-11-17T09:55:02.397Z,6.80
2022-11-17T09:57:36.626Z,8.63
2022-11-17T10:00:16.562Z,12.87
2022-11-17T10:02:45.096Z,16.10
2022-11-17T10:05:20.737Z,7.50
2022-11-17T10:07:51.960Z,7.70
2022-11-17T10:10:23.613Z,8.70
2022-11-17T10:12:59.237Z,10.60
2022-11-17T10:15:38.117Z,13.30
2022-11-17T10:18:16.406Z,10.10
2022-11-17T10:20:46.135Z,8.47
2022-11-17T10:23:15.884Z,8.43
2022-11-17T10:25:46.835Z,10.17
2022-11-17T10:28:30.890Z,9.53
2022-11-17T10:31:03.125Z,10.40
2022-11-17T10:33:39.548Z,11.13
2022-11-17T10:36:16.117Z,14.07
2022-11-17T10:38:46.326Z,9.90
2022-11-17T10:41:18.231Z,12.10
2022-11-17T10:43:57.733Z,12.53
2022-11-17T10:47:02.607Z,11.50
2022-11-17T10:49:34.945Z,10.43
2022-11-17T10:52:08.263Z,13.77
2022-11-17T10:54:36.409Z,8.00
2022-11-17T10:57:09.437Z,11.37
2022-11-17T10:59:45.507Z,17.03
2022-11-17T11:02:30.079Z,14.23
2022-11-17T11:05:08.252Z,9.93
2022-11-17T11:07:36.436Z,13.40
2022-11-17T11:10:11.567Z,9.83
2022-11-17T11:12:44.789Z,12.70
2022-11-17T11:15:20.429Z,10.97
2022-11-17T11:17:50.051Z,10.20
2022-11-17T11:20:21.105Z,11.27
2022-11-17T11:22:57.972Z,13.30
2022-11-17T11:25:35.135Z,11.50
2022-11-17T11:28:16.274Z,11.20
2022-11-17T11:30:55.037Z,10.60
2022-11-17T11:33:35.154Z,10.03
2022-11-17T11:36:23.644Z,11.47
2022-11-17T11:39:05.136Z,13.33
2022-11-17T11:41:43.400Z,9.33
2022-11-17T11:44:30.936Z,15.63
2022-11-17T11:47:12.370Z,10.53
2022-11-17T11:49:47.138Z,13.37
2022-11-17T11:52:19.926Z,13.30
2022-11-17T11:54:52.454Z,15.57
2022-11-17T11:57:25.890Z,10.33
2022-11-17T12:00:03.501Z,10.10
2022-11-17T12:02:41.485Z,10.20
2022-11-17T12:05:20.231Z,8.73
2022-11-17T12:07:53.004Z,9.67
2022-11-17T12:10:27.993Z,8.93
2022-11-17T12:12:56.124Z,9.43
2022-11-17T12:15:35.752Z,11.40
2022-11-17T12:18:06.758Z,10.33
2022-11-17T12:21:04.062Z,9.47
2022-11-17T12:24:02.230Z,9.30
2022-11-17T12:26:32.512Z,9.13
2022-11-17T12:29:25.647Z,9.57
2022-11-17T12:31:54.645Z,10.53
2022-11-17T12:34:25.814Z,10.13
2022-11-17T12:37:22.056Z,7.33
2022-11-17T12:40:05.790Z,8.20
2022-11-17T12:42:35.358Z,8.37
2022-11-17T12:45:10.740Z,7.67
2022-11-17T12:47:40.494Z,10.37
2022-11-17T12:50:33.299Z,8.40
2022-11-17T12:53:32.475Z,12.60
2022-11-17T12:56:28.108Z,13.17
2022-11-17T12:59:39.870Z,8.13
2022-11-17T13:02:26.785Z,7.37
2022-11-17T13:04:58.748Z,7.43
2022-11-17T13:07:28.214Z,10.00
2022-11-17T13:09:59.288Z,8.57
2022-11-17T13:12:28.801Z,7.00
2022-11-17T13:14:58.699Z,9.07
2022-11-17T13:17:29.817Z,11.00
2022-11-17T13:20:04.125Z,10.97
2022-11-17T13:22:34.414Z,11.87
2022-11-17T13:25:22.625Z,11.20
2022-11-17T13:27:56.094Z,11.00
2022-11-17T13:30:27.425Z,11.20
2022-11-17T13:32:56.344Z,11.17
2022-11-17T13:35:26.503Z,11.90
2022-11-17T13:38:09.547Z,17.27
2022-11-17T13:40:41.288Z,12.33
2022-11-17T13:43:14.016Z,12.03
2022-11-17T13:45:45.502Z,10.33
2022-11-17T13:48:31.758Z,9.20
2022-11-17T13:51:37.197Z,10.33
2022-11-17T13:54:15.029Z,15.13
2022-11-17T13:56:53.097Z,10.40
2022-11-17T13:59:26.212Z,9.90
2022-11-17T14:02:31.084Z,10.27
2022-11-17T14:05:23.116Z,10.07
2022-11-17T14:07:52.985Z,8.03
2022-11-17T14:10:37.647Z,6.93
2022-11-17T14:13:24.838Z,9.07
2022-11-17T14:15:56.801Z,8.03
2022-11-17T14:18:30.194Z,7.43
2022-11-17T14:21:13.534Z,9.47
2022-11-17T14:23:42.174Z,40.93
2022-11-17T14:26:23.409Z,10.23
2022-11-17T14:28:54.004Z,14.07
2022-11-17T14:31:22.148Z,9.50
2022-11-17T14:33:50.564Z,11.73
2022-11-17T14:36:19.159Z,12.87
2022-11-17T14:38:47.517Z,18.90
2022-11-17T14:41:16.501Z,16.93
2022-11-17T14:43:44.805Z,17.43
2022-11-17T14:46:19.836Z,12.23
2022-11-17T14:48:48.203Z,14.17
2022-11-17T14:51:16.288Z,11.97
2022-11-17T14:53:44.859Z,15.67
2022-11-17T14:56:15.600Z,12.40
2022-11-17T14:58:43.620Z,11.67
2022-11-17T15:01:13.515Z,12.30
2022-11-17T15:03:43.074Z,16.93
2022-11-17T15:06:18.224Z,16.77
2022-11-17T15:08:48.241Z,14.10
2022-11-17T15:11:18.935Z,13.73
2022-11-17T15:13:46.980Z,13.23
2022-11-17T15:16:15.029Z,23.33
2022-11-17T15:18:47.629Z,14.40
2022-11-17T15:21:16.845Z,15.20
2022-11-17T15:23:45.670Z,17.13
2022-11-17T15:26:15.907Z,24.13
2022-11-17T15:28:44.326Z,34.13
2022-11-17T15:31:14.925Z,42.13
2022-11-17T15:33:44.193Z,46.43
2022-11-17T15:36:15.770Z,36.03
2022-11-17T15:38:44.320Z,50.80
2022-11-17T15:41:13.910Z,58.60
2022-11-17T15:43:43.409Z,55.17
2022-11-17T15:46:13.467Z,52.87
2022-11-17T15:48:43.429Z,59.13
2022-11-17T15:51:14.857Z,60.83
2022-11-17T15:53:43.957Z,58.80
2022-11-17T15:56:13.653Z,48.73
2022-11-17T15:58:46.437Z,47.80
2022-11-17T16:01:16.020Z,51.23
2022-11-17T16:03:46.215Z,50.70
2022-11-17T16:06:15.674Z,55.77
2022-11-17T16:08:43.771Z,45.17
2022-11-17T16:11:12.418Z,46.83
2022-11-17T16:13:40.574Z,40.23
2022-11-17T16:16:13.369Z,44.17
2022-11-17T16:18:41.556Z,37.67
2022-11-17T16:21:12.720Z,38.70
2022-11-17T16:23:43.866Z,42.70
2022-11-17T16:26:12.737Z,38.97
2022-11-17T16:28:41.450Z,41.93
2022-11-17T16:31:17.867Z,35.27
2022-11-17T16:33:49.859Z,43.27
2022-11-17T16:36:18.324Z,46.73
2022-11-17T16:39:00.246Z,38.20
2022-11-17T16:41:31.716Z,30.93
2022-11-17T16:43:59.928Z,27.47
2022-11-17T16:46:29.815Z,58.63
2022-11-17T16:49:01.306Z,74.73
2022-11-17T16:51:29.559Z,56.90
2022-11-17T16:54:00.707Z,47.73
2022-11-17T16:56:29.097Z,50.23
2022-11-17T16:58:57.433Z,42.73
2022-11-17T17:01:27.197Z,43.13
2022-11-17T17:03:58.899Z,41.97
2022-11-17T17:06:27.339Z,40.47
2022-11-17T17:08:55.952Z,38.97
2022-11-17T17:11:27.277Z,32.17
2022-11-17T17:13:56.404Z,33.55
2022-11-17T17:16:25.793Z,31.87
2022-11-17T17:18:56.717Z,34.37
2022-11-17T17:21:24.797Z,34.70
2022-11-17T17:23:52.985Z,37.03
2022-11-17T17:26:24.883Z,35.93
2022-11-17T17:28:57.254Z,36.50
2022-11-17T17:31:29.335Z,47.87
2022-11-17T17:33:57.713Z,46.33
2022-11-17T17:36:26.634Z,50.83
2022-11-17T17:38:56.451Z,50.03
2022-11-17T17:41:26.691Z,52.67
2022-11-17T17:44:01.899Z,61.43
2022-11-17T17:46:30.663Z,65.33
2022-11-17T17:48:59.114Z,57.93
2022-11-17T17:51:28.698Z,58.57
2022-11-17T17:53:58.391Z,54.40
2022-11-17T17:56:26.838Z,51.43
2022-11-17T17:58:56.337Z,57.33
2022-11-17T18:01:30.643Z,48.37
2022-11-17T18:04:04.319Z,59.63
2022-11-17T18:06:36.465Z,53.50
2022-11-17T18:09:04.539Z,55.00
2022-11-17T18:11:32.711Z,48.30
2022-11-17T18:14:00.732Z,56.80
2022-11-17T18:16:32.660Z,53.63
2022-11-17T18:19:02.810Z,51.67
2022-11-17T18:21:31.546Z,55.83
2022-11-17T18:24:02.698Z,48.27
2022-11-17T18:26:32.404Z,52.30
2022-11-17T18:29:02.622Z,48.93
2022-11-17T18:31:39.272Z,45.87
2022-11-17T18:34:09.841Z,42.63
2022-11-17T18:36:37.920Z,34.47
2022-11-17T18:39:05.978Z,42.80
2022-11-17T18:41:34.131Z,40.73
2022-11-17T18:44:02.482Z,37.97
2022-11-17T18:46:33.609Z,44.53
2022-11-17T18:49:02.203Z,46.80
2022-11-17T18:51:34.175Z,44.33
2022-11-17T18:54:03.192Z,49.43
2022-11-17T18:56:34.518Z,51.20
2022-11-17T18:59:02.595Z,48.83
2022-11-17T19:01:32.248Z,46.53
2022-11-17T19:04:01.341Z,37.90
2022-11-17T19:06:30.239Z,49.40
2022-11-17T19:09:00.087Z,45.47
2022-11-17T19:11:30.751Z,41.77
2022-11-17T19:14:02.186Z,50.03
2022-11-17T19:16:32.953Z,45.33
2022-11-17T19:19:03.290Z,47.07
2022-11-17T19:21:33.664Z,48.40
2022-11-17T19:24:03.328Z,44.33
2022-11-17T19:26:33.652Z,39.53
2022-11-17T19:29:03.927Z,45.63
2022-11-17T19:31:37.110Z,41.20
2022-11-17T19:34:08.427Z,44.37
2022-11-17T19:36:36.665Z,44.83
2022-11-17T19:39:05.172Z,54.03
2022-11-17T19:41:41.631Z,48.30
2022-11-17T19:44:13.312Z,48.87
2022-11-17T19:46:43.302Z,46.40
2022-11-17T19:49:13.514Z,44.43
2022-11-17T19:51:42.289Z,37.43
2022-11-17T19:54:13.332Z,51.33
2022-11-17T19:56:41.800Z,36.87
2022-11-17T19:59:15.789Z,40.27
2022-11-17T20:01:46.758Z,49.30
2022-11-17T20:04:14.983Z,50.03
2022-11-17T20:06:44.704Z,51.07
2022-11-17T20:09:15.362Z,51.77
2022-11-17T20:11:44.222Z,46.17
2022-11-17T20:14:12.253Z,46.90
2022-11-17T20:16:42.668Z,47.80
2022-11-17T20:19:13.604Z,53.27
2022-11-17T20:21:42.645Z,57.40
2022-11-17T20:24:11.126Z,59.80
2022-11-17T20:26:40.978Z,63.93
2022-11-17T20:29:09.492Z,56.20
2022-11-17T20:31:38.011Z,64.50
2022-11-17T20:34:06.898Z,56.90
2022-11-17T20:36:36.368Z,59.40
2022-11-17T20:39:07.174Z,54.30
2022-11-17T20:41:35.838Z,53.53
2022-11-17T20:44:04.240Z,52.13
2022-11-17T20:46:32.394Z,54.73
2022-11-17T20:49:01.058Z,56.53
2022-11-17T20:51:29.076Z,49.83
2022-11-17T20:53:58.564Z,55.90
2022-11-17T20:56:26.691Z,54.60
2022-11-17T20:58:54.713Z,56.60
2022-11-17T21:01:24.376Z,50.87
2022-11-17T21:03:52.672Z,60.53
2022-11-17T21:06:22.897Z,45.07
2022-11-17T21:08:51.094Z,52.97
2022-11-17T21:11:40.558Z,48.70
2022-11-17T21:14:11.317Z,50.53
2022-11-17T21:16:41.524Z,56.27
2022-11-17T21:19:10.437Z,49.00
2022-11-17T21:21:38.684Z,60.10
2022-11-17T21:24:08.123Z,59.10
2022-11-17T21:26:38.161Z,54.13
2022-11-17T21:29:07.207Z,57.07
2022-11-17T21:31:35.922Z,56.93
2022-11-17T21:34:06.114Z,54.07
2022-11-17T21:36:36.012Z,60.70
2022-11-17T21:39:04.082Z,66.30
2022-11-17T21:41:35.291Z,64.77
2022-11-17T21:44:05.462Z,49.17
2022-11-17T21:46:36.154Z,52.43
2022-11-17T21:49:04.413Z,63.90
2022-11-17T21:51:34.214Z,58.57
2022-11-17T21:54:03.477Z,63.47
2022-11-17T21:56:32.123Z,60.43
2022-11-17T21:59:01.852Z,58.20
2022-11-17T22:01:32.187Z,63.57
2022-11-17T22:04:00.476Z,56.43
2022-11-17T22:06:28.850Z,53.83
2022-11-17T22:08:57.718Z,52.87
2022-11-17T22:11:36.986Z,51.47
2022-11-17T22:17:05.275Z,42.27
2022-11-17T22:19:33.809Z,45.00
2022-11-17T22:22:02.005Z,38.97
2022-11-17T22:24:31.346Z,47.00
2022-11-17T22:26:59.715Z,53.27
2022-11-17T22:29:27.911Z,51.20
2022-11-17T22:31:56.262Z,51.17
2022-11-17T22:34:25.843Z,57.13
2022-11-17T22:36:54.086Z,59.73
2022-11-17T22:39:22.329Z,59.93
2022-11-17T22:41:50.497Z,65.00
2022-11-17T22:44:19.281Z,71.67
2022-11-17T22:46:47.920Z,63.20
2022-11-17T22:49:16.480Z,72.57
2022-11-17T22:52:04.441Z,74.87
2022-11-17T22:54:32.964Z,82.43
2022-11-17T22:57:01.623Z,82.03
2022-11-17T22:59:31.701Z,71.90
2022-11-17T23:02:00.159Z,60.87
2022-11-17T23:04:29.730Z,59.07
2022-11-17T23:06:59.369Z,47.73
2022-11-17T23:09:27.604Z,37.87
2022-11-17T23:11:55.653Z,42.20
2022-11-17T23:14:23.785Z,32.67
2022-11-17T23:16:53.129Z,32.43
2022-11-17T23:19:21.305Z,33.27
2022-11-17T23:21:49.565Z,31.63
2022-11-17T23:24:19.745Z,29.87
2022-11-17T23:26:47.939Z,27.00
2022-11-17T23:29:16.845Z,29.70
2022-11-17T23:31:45.812Z,31.67
2022-11-17T23:34:14.694Z,33.00
2022-11-17T23:36:42.971Z,23.17
2022-11-17T23:39:11.318Z,24.20
2022-11-17T23:41:41.154Z,27.07
2022-11-17T23:44:09.618Z,30.63
2022-11-17T23:46:38.132Z,24.40
2022-11-17T23:49:06.279Z,22.93
2022-11-17T23:51:34.940Z,25.77
2022-11-17T23:54:03.925Z,29.33
2022-11-17T23:56:33.753Z,26.93
2022-11-17T23:59:03.611Z,23.53
